Time;durP1;ratioP1;P1;durP2;ratioP2;P2;SDS_P1;SDS_P2;PMS_P1;PMS_P2;Temp;Humidity;BMP_temperature;BMP_pressure;BME280_temperature;BME280_humidity;BME280_pressure;Samples;Min_cycle;Max_cycle;Signal;HPM_P1;HPM_P2
2022/10/23 00:04:55;;;;;;;0.00;0.00;;;14.20;98.00;;;;;;4942514;29;20058;-77
2022/10/23 00:08:30;;;;;;;0.13;0.10;;;14.20;98.00;;;;;;4925238;29;20036;-77
2022/10/23 00:11:47;;;;;;;0.00;0.00;;;14.30;98.00;;;;;;4940913;29;20032;-77
2022/10/23 00:14:14;;;;;;;0.00;0.00;;;14.30;98.00;;;;;;4941997;29;20127;-76
2022/10/23 00:16:50;;;;;;;0.10;0.10;;;14.20;98.00;;;;;;4941950;29;20272;-76
2022/10/23 00:19:24;;;;;;;0.00;0.00;;;14.20;98.00;;;;;;4941968;29;20024;-76
2022/10/23 00:21:59;;;;;;;0.00;0.00;;;14.20;98.00;;;;;;4941715;29;20416;-76
2022/10/23 00:24:25;;;;;;;0.00;0.00;;;14.20;98.00;;;;;;4925027;29;20032;-76
2022/10/23 00:27:02;;;;;;;0.00;0.00;;;14.30;98.00;;;;;;4941804;29;20032;-76
2022/10/23 00:29:37;;;;;;;0.00;0.00;;;14.40;98.00;;;;;;4941821;29;20039;-76
2022/10/23 00:32:12;;;;;;;0.00;0.00;;;14.40;98.00;;;;;;4941337;29;20115;-76
2022/10/23 00:34:37;;;;;;;0.00;0.00;;;14.40;98.00;;;;;;4941580;29;20447;-76
2022/10/23 00:44:01;;;;;;;0.00;0.00;;;14.50;98.00;;;;;;4980281;28;20269;-76
2022/10/23 00:46:37;;;;;;;0.00;0.00;;;14.50;98.00;;;;;;4962813;28;20030;-77
2022/10/23 00:49:13;;;;;;;0.00;0.00;;;14.50;98.00;;;;;;4962781;28;20030;-77
2022/10/23 00:51:55;;;;;;;0.00;0.00;;;14.60;98.00;;;;;;4962508;28;20431;-76
2022/10/23 00:54:26;;;;;;;0.00;0.00;;;14.60;98.00;;;;;;4979680;28;20335;-77
2022/10/23 00:57:04;;;;;;;0.00;0.00;;;14.70;98.00;;;;;;4979576;28;20106;-76
2022/10/23 00:59:39;;;;;;;0.00;0.00;;;14.70;98.00;;;;;;4979681;28;20073;-76
2022/10/23 01:06:22;;;;;;;0.00;0.00;;;14.70;98.00;;;;;;4979856;28;20089;-76
2022/10/23 01:09:26;;;;;;;0.00;0.00;;;14.60;98.00;;;;;;4939123;29;20479;-77
2022/10/23 01:15:32;;;;;;;0.00;0.00;;;14.50;98.00;;;;;;4939490;29;20062;-76
2022/10/23 01:19:19;;;;;;;0.10;0.08;;;14.50;98.00;;;;;;4938861;29;20036;-76
2022/10/23 01:21:59;;;;;;;0.05;0.05;;;14.40;98.00;;;;;;4845100;29;20029;-76
2022/10/23 01:25:01;;;;;;;0.00;0.00;;;14.40;98.00;;;;;;4899669;29;20040;-76
2022/10/23 01:27:48;;;;;;;0.00;0.00;;;14.40;98.00;;;;;;4919905;29;20479;-76
2022/10/23 01:30:31;;;;;;;0.20;0.10;;;14.30;98.00;;;;;;4975819;28;20050;-76
2022/10/23 01:33:11;;;;;;;0.10;0.10;;;14.20;98.00;;;;;;4978818;28;20375;-76
2022/10/23 01:35:51;;;;;;;0.00;0.00;;;14.00;98.00;;;;;;4961807;28;20115;-76
2022/10/23 01:38:26;;;;;;;0.00;0.00;;;13.80;98.00;;;;;;4944898;28;20031;-76
2022/10/23 01:45:07;;;;;;;0.05;0.05;;;13.80;98.00;;;;;;4881872;29;20047;-76
2022/10/23 01:47:44;;;;;;;0.00;0.00;;;14.00;98.00;;;;;;4866268;29;20037;-76
2022/10/23 01:50:20;;;;;;;0.00;0.00;;;14.10;98.00;;;;;;4881908;29;20119;-76
2022/10/23 01:56:21;;;;;;;0.47;0.30;;;14.00;98.00;;;;;;4882201;29;20382;-76
2022/10/23 01:59:00;;;;;;;0.00;0.00;;;14.10;98.00;;;;;;4850804;29;20040;-76
2022/10/23 02:01:38;;;;;;;0.00;0.00;;;14.10;98.00;;;;;;4865874;29;20112;-76
2022/10/23 02:04:08;;;;;;;0.00;0.00;;;14.20;98.00;;;;;;4881728;29;20057;-76
2022/10/23 02:06:43;;;;;;;0.05;0.05;;;14.30;98.00;;;;;;4881575;29;20068;-76
2022/10/23 02:09:17;;;;;;;0.00;0.00;;;14.30;98.00;;;;;;4881626;29;20036;-76
2022/10/23 02:12:44;;;;;;;0.00;0.00;;;14.40;98.00;;;;;;4881382;29;20437;-76
2022/10/23 02:19:17;;;;;;;0.00;0.00;;;14.50;98.00;;;;;;4823355;29;20063;-76
2022/10/23 02:25:13;;;;;;;0.00;0.00;;;14.80;98.00;;;;;;4919030;29;20447;-76
2022/10/23 02:27:54;;;;;;;0.00;0.00;;;14.80;98.00;;;;;;4918718;29;20036;-77
2022/10/23 02:30:30;;;;;;;0.20;0.10;;;14.60;98.00;;;;;;4918746;29;20040;-76
2022/10/23 02:36:19;;;;;;;0.10;0.00;;;14.20;98.00;;;;;;4918691;29;20152;-76
2022/10/23 02:38:54;;;;;;;0.00;0.00;;;14.00;98.00;;;;;;4902607;29;20087;-76
2022/10/23 02:45:24;;;;;;;0.10;0.10;;;13.90;98.00;;;;;;4918977;29;20035;-76
2022/10/23 02:48:08;;;;;;;0.00;0.00;;;13.90;98.00;;;;;;4918594;29;20032;-76
2022/10/23 02:51:01;;;;;;;0.10;0.10;;;14.00;98.00;;;;;;4942406;29;20475;-76
2022/10/23 02:53:40;;;;;;;0.10;0.10;;;14.10;98.00;;;;;;4957336;28;20046;-76
2022/10/23 02:56:39;;;;;;;0.00;0.00;;;14.20;98.00;;;;;;4958326;28;20103;-76
2022/10/23 03:00:04;;;;;;;0.00;0.00;;;14.30;98.00;;;;;;4957344;28;20034;-76
2022/10/23 03:03:02;;;;;;;0.10;0.03;;;14.30;98.00;;;;;;4937196;29;20090;-76
2022/10/23 03:05:39;;;;;;;0.00;0.00;;;14.40;98.00;;;;;;4921235;29;20191;-76
2022/10/23 03:08:15;;;;;;;0.00;0.00;;;14.50;98.00;;;;;;4937249;29;20063;-76
2022/10/23 03:10:45;;;;;;;0.00;0.00;;;14.70;97.80;;;;;;4921267;29;20040;-76
2022/10/23 03:16:48;;;;;;;0.00;0.00;;;14.80;98.00;;;;;;4937368;29;20039;-76
2022/10/23 03:19:22;;;;;;;0.30;0.22;;;14.80;98.00;;;;;;4937306;29;20134;-76
2022/10/23 03:25:10;;;;;;;0.00;0.00;;;14.70;98.00;;;;;;4937554;29;20031;-77
2022/10/23 03:27:45;;;;;;;0.00;0.00;;;14.50;98.00;;;;;;4937202;29;20059;-77
2022/10/23 03:30:11;;;;;;;0.40;0.35;;;14.40;98.00;;;;;;4937136;29;20040;-76
2022/10/23 03:32:37;;;;;;;0.35;0.10;;;14.40;98.00;;;;;;4936841;29;20087;-76
2022/10/23 03:35:58;;;;;;;0.00;0.00;;;14.40;98.00;;;;;;4937072;29;20031;-76
2022/10/23 03:38:33;;;;;;;0.00;0.00;;;14.50;98.00;;;;;;4949655;29;20038;-76
2022/10/23 03:41:08;;;;;;;0.00;0.00;;;14.50;98.00;;;;;;4937837;29;20127;-76
2022/10/23 03:43:33;;;;;;;0.00;0.00;;;14.40;98.00;;;;;;4937671;29;20039;-76
2022/10/23 03:46:11;;;;;;;0.35;0.35;;;14.40;98.00;;;;;;4938803;29;20032;-76
2022/10/23 03:48:46;;;;;;;0.08;0.00;;;14.40;98.00;;;;;;4939043;29;20054;-76
2022/10/23 03:51:22;;;;;;;0.10;0.10;;;14.30;98.00;;;;;;4938747;29;20107;-76
2022/10/23 03:53:47;;;;;;;0.00;0.00;;;14.20;98.00;;;;;;4938708;29;20027;-76
2022/10/23 03:56:25;;;;;;;0.20;0.10;;;14.10;98.00;;;;;;4921901;29;20038;-76
2022/10/23 03:59:00;;;;;;;0.10;0.10;;;14.10;98.00;;;;;;4938820;29;20049;-76
2022/10/23 04:04:48;;;;;;;0.00;0.00;;;13.90;98.00;;;;;;4938863;29;20034;-76
2022/10/23 04:07:23;;;;;;;0.00;0.00;;;13.80;98.00;;;;;;4939887;29;20020;-77
2022/10/23 04:09:58;;;;;;;0.03;0.03;;;13.70;98.00;;;;;;4942189;29;20380;-76
2022/10/23 04:12:34;;;;;;;0.00;0.00;;;13.80;98.00;;;;;;4941945;29;20036;-77
2022/10/23 04:15:09;;;;;;;0.10;0.10;;;13.80;98.00;;;;;;4941833;29;20424;-76
2022/10/23 04:17:44;;;;;;;0.03;0.03;;;14.00;98.00;;;;;;4941947;29;20024;-77
2022/10/23 04:20:18;;;;;;;0.00;0.00;;;14.20;98.00;;;;;;4942022;29;20028;-76
2022/10/23 04:22:44;;;;;;;0.00;0.00;;;14.40;98.00;;;;;;4941712;29;20016;-77
2022/10/23 04:25:19;;;;;;;0.10;0.10;;;14.50;98.00;;;;;;4940891;29;20039;-76
2022/10/23 04:27:54;;;;;;;0.00;0.00;;;14.60;97.90;;;;;;4941810;29;20055;-76
2022/10/23 04:30:28;;;;;;;0.17;0.17;;;14.60;97.40;;;;;;4941754;29;20027;-76
2022/10/23 04:32:54;;;;;;;0.00;0.00;;;14.70;96.00;;;;;;4941552;29;20039;-76
2022/10/23 04:35:35;;;;;;;0.10;0.03;;;14.80;96.00;;;;;;4941611;29;20095;-76
2022/10/23 04:38:10;;;;;;;0.00;0.00;;;14.90;96.00;;;;;;4941568;29;20087;-76
2022/10/23 04:45:11;;;;;;;0.00;0.00;;;15.10;93.80;;;;;;4960835;28;20034;-76
2022/10/23 04:48:36;;;;;;;0.10;0.10;;;15.20;94.40;;;;;;4960623;29;20315;-76
2022/10/23 04:52:01;;;;;;;0.03;0.03;;;15.50;95.40;;;;;;4960398;29;20439;-76
2022/10/23 04:54:27;;;;;;;0.35;0.20;;;15.60;95.20;;;;;;4960310;29;20027;-76
2022/10/23 05:00:15;;;;;;;0.15;0.15;;;15.40;97.20;;;;;;4979832;28;20038;-76
2022/10/23 05:02:41;;;;;;;0.00;0.00;;;15.20;98.00;;;;;;4979470;28;20031;-76
2022/10/23 05:05:16;;;;;;;0.00;0.00;;;15.10;98.00;;;;;;4946492;28;20093;-76
2022/10/23 05:07:51;;;;;;;;;;;15.10;98.00;;;;;;4962742;28;20077;-76
2022/10/23 05:10:26;;;;;;;0.00;0.00;;;15.00;98.00;;;;;;4962402;28;20310;-76
2022/10/23 05:12:52;;;;;;;0.10;0.00;;;15.10;96.10;;;;;;4979462;28;20062;-76
2022/10/23 05:15:36;;;;;;;1.23;0.47;;;15.10;96.10;;;;;;4946319;28;20105;-76
2022/10/23 05:18:16;;;;;;;0.00;0.00;;;15.10;96.10;;;;;;4945633;28;20030;-76
2022/10/23 05:20:57;;;;;;;0.10;0.10;;;15.10;95.90;;;;;;4979321;28;20039;-76
2022/10/23 05:23:25;;;;;;;0.00;0.00;;;15.10;96.20;;;;;;4962145;28;20085;-76
2022/10/23 05:26:02;;;;;;;0.00;0.00;;;15.20;95.50;;;;;;4979159;28;20118;-76
2022/10/23 05:28:36;;;;;;;0.00;0.00;;;15.30;95.20;;;;;;4979374;28;20015;-76
2022/10/23 05:31:12;;;;;;;0.00;0.00;;;15.40;94.50;;;;;;4979188;28;20130;-76
2022/10/23 05:37:11;;;;;;;0.00;0.00;;;15.50;93.60;;;;;;4979042;28;20483;-76
2022/10/23 05:39:46;;;;;;;0.00;0.00;;;15.60;94.30;;;;;;4945866;28;20034;-76
2022/10/23 05:42:20;;;;;;;0.00;0.00;;;15.60;94.80;;;;;;4940478;29;20365;-76
2022/10/23 05:44:46;;;;;;;1.08;0.20;;;15.60;94.90;;;;;;4939498;29;20064;-76
2022/10/23 05:48:08;;;;;;;0.00;0.00;;;15.60;93.90;;;;;;4923605;29;20114;-76
2022/10/23 05:50:53;;;;;;;0.00;0.00;;;15.70;93.20;;;;;;4940294;29;20102;-76
2022/10/23 05:53:19;;;;;;;0.00;0.00;;;15.70;92.50;;;;;;4940014;29;20039;-76
2022/10/23 05:56:08;;;;;;;0.10;0.10;;;15.70;92.40;;;;;;4923739;29;20044;-76
2022/10/23 05:58:43;;;;;;;0.10;0.10;;;15.70;93.10;;;;;;4939089;29;20071;-76
2022/10/23 06:01:17;;;;;;;0.00;0.00;;;15.80;92.40;;;;;;4940056;29;20030;-76
2022/10/23 06:07:22;;;;;;;0.00;0.00;;;15.60;93.60;;;;;;4940288;29;20079;-76
2022/10/23 06:09:57;;;;;;;0.00;0.00;;;15.50;95.70;;;;;;4940051;29;20032;-77
2022/10/23 06:15:53;;;;;;;0.15;0.10;;;15.50;95.10;;;;;;4940107;29;20046;-76
2022/10/23 06:18:28;;;;;;;0.00;0.00;;;15.50;98.00;;;;;;4939907;29;20028;-76
2022/10/23 06:21:03;;;;;;;0.10;0.10;;;15.50;97.20;;;;;;4939812;29;20031;-76
2022/10/23 06:23:31;;;;;;;0.00;0.00;;;15.60;96.10;;;;;;4939686;29;20083;-76
2022/10/23 06:26:14;;;;;;;0.00;0.00;;;15.60;96.20;;;;;;4939695;29;20412;-76
2022/10/23 06:28:49;;;;;;;0.15;0.15;;;15.60;95.30;;;;;;4939632;29;20034;-76
2022/10/23 06:31:27;;;;;;;0.00;0.00;;;15.60;96.50;;;;;;4939356;29;20040;-76
2022/10/23 06:33:57;;;;;;;0.00;0.00;;;15.60;97.10;;;;;;4939459;29;20028;-76
2022/10/23 06:36:32;;;;;;;0.00;0.00;;;15.50;97.20;;;;;;4938508;29;20032;-76
2022/10/23 06:39:08;;;;;;;0.00;0.00;;;15.60;96.60;;;;;;4922635;29;20028;-76
2022/10/23 06:45:16;;;;;;;0.00;0.00;;;15.70;98.00;;;;;;4958879;29;20050;-76
2022/10/23 06:47:51;;;;;;;0.03;0.00;;;15.70;98.00;;;;;;4958503;29;20032;-76
2022/10/23 06:50:29;;;;;;;0.00;0.00;;;15.70;98.00;;;;;;4958594;28;20089;-76
2022/10/23 06:56:28;;;;;;;0.15;0.15;;;15.70;98.00;;;;;;4958833;29;20056;-77
2022/10/23 06:59:03;;;;;;;1.20;0.95;;;15.80;98.00;;;;;;4958428;28;20491;-76
2022/10/23 07:01:37;;;;;;;0.87;0.67;;;15.80;98.00;;;;;;4958373;28;20095;-76
2022/10/23 07:04:03;;;;;;;0.05;0.05;;;15.90;98.00;;;;;;4957273;29;20273;-76
2022/10/23 07:06:42;;;;;;;0.60;0.22;;;15.90;98.00;;;;;;4957504;29;20427;-77
2022/10/23 07:09:16;;;;;;;0.22;0.20;;;15.90;98.00;;;;;;4958271;29;20360;-76
2022/10/23 07:11:51;;;;;;;0.10;0.08;;;16.00;98.00;;;;;;4941201;29;20118;-76
2022/10/23 07:14:17;;;;;;;0.57;0.10;;;16.00;98.00;;;;;;4958160;28;20039;-76
2022/10/23 07:17:36;;;;;;;0.30;0.17;;;16.00;98.00;;;;;;4958225;29;20267;-76
2022/10/23 07:20:10;;;;;;;0.08;0.00;;;16.10;98.00;;;;;;4958168;29;20384;-76
2022/10/23 07:22:37;;;;;;;0.10;0.10;;;16.10;98.00;;;;;;4957985;28;20106;-76
2022/10/23 07:25:12;;;;;;;0.00;0.00;;;16.10;98.00;;;;;;4957258;29;20027;-76
2022/10/23 07:27:47;;;;;;;0.30;0.20;;;16.20;98.00;;;;;;4957249;29;20031;-76
2022/10/23 07:30:23;;;;;;;0.00;0.00;;;16.20;98.00;;;;;;4957052;29;20054;-76
2022/10/23 07:36:22;;;;;;;0.20;0.13;;;16.30;98.00;;;;;;4958360;28;20088;-76
2022/10/23 07:38:57;;;;;;;0.00;0.00;;;16.40;96.50;;;;;;4956988;29;20031;-76
2022/10/23 07:44:57;;;;;;;0.10;0.10;;;16.60;94.90;;;;;;4981501;28;20133;-76
2022/10/23 07:47:35;;;;;;;0.22;0.10;;;16.70;95.00;;;;;;4963914;28;20058;-76
2022/10/23 07:50:10;;;;;;;0.00;0.00;;;16.80;96.30;;;;;;4981004;28;20055;-76
2022/10/23 07:52:35;;;;;;;0.10;0.10;;;16.80;97.80;;;;;;4963906;28;20038;-77
2022/10/23 07:55:20;;;;;;;0.45;0.30;;;16.90;98.00;;;;;;4963661;28;20038;-76
2022/10/23 07:57:54;;;;;;;0.22;0.22;;;17.00;98.00;;;;;;4980882;28;20315;-76
2022/10/23 08:00:29;;;;;;;0.30;0.20;;;17.10;98.00;;;;;;4963693;28;20138;-76
2022/10/23 08:02:55;;;;;;;0.60;0.40;;;17.00;97.70;;;;;;4980703;28;20263;-76
2022/10/23 08:05:39;;;;;;;0.65;0.65;;;16.90;98.00;;;;;;4963583;28;20073;-76
2022/10/23 08:08:14;;;;;;;2.22;0.75;;;16.90;98.00;;;;;;4980602;28;20035;-76
2022/10/23 08:10:50;;;;;;;0.30;0.10;;;16.80;98.00;;;;;;4947536;28;20031;-76
2022/10/23 08:16:50;;;;;;;0.15;0.15;;;16.90;98.00;;;;;;4980736;28;20022;-76
2022/10/23 08:19:25;;;;;;;0.40;0.30;;;16.80;98.00;;;;;;4980554;28;20109;-76
2022/10/23 08:25:25;;;;;;;1.63;1.00;;;16.80;98.00;;;;;;4980480;28;20086;-77
2022/10/23 08:28:00;;;;;;;3.78;1.23;;;16.80;98.00;;;;;;4963205;28;20325;-76
2022/10/23 08:30:36;;;;;;;0.17;0.15;;;16.80;98.00;;;;;;4980232;28;20023;-76
2022/10/23 08:33:03;;;;;;;0.00;0.00;;;16.80;98.00;;;;;;4980050;28;20038;-76
2022/10/23 08:35:48;;;;;;;0.15;0.05;;;16.70;98.00;;;;;;4980115;28;20033;-76
2022/10/23 08:38:23;;;;;;;0.45;0.35;;;16.80;98.00;;;;;;4980102;28;20070;-76
2022/10/23 08:40:59;;;;;;;1.33;1.10;;;16.80;98.00;;;;;;4977287;28;20447;-76
2022/10/23 08:43:45;;;;;;;0.28;0.20;;;16.80;98.00;;;;;;4979874;28;20407;-76
2022/10/23 08:46:36;;;;;;;0.10;0.10;;;16.80;98.00;;;;;;4980040;28;20023;-76
2022/10/23 08:49:47;;;;;;;1.20;0.43;;;16.70;98.00;;;;;;4979943;28;20169;-76
2022/10/23 08:52:40;;;;;;;0.28;0.20;;;16.80;98.00;;;;;;4979747;28;20093;-76
2022/10/23 08:55:34;;;;;;;0.22;0.20;;;16.90;98.00;;;;;;4979773;28;20038;-76
2022/10/23 08:58:14;;;;;;;0.22;0.20;;;16.90;98.00;;;;;;4979771;28;20034;-76
2022/10/23 09:00:52;;;;;;;0.10;0.10;;;16.90;98.00;;;;;;4979661;28;20106;-76
2022/10/23 09:07:17;;;;;;;0.10;0.10;;;17.10;98.00;;;;;;4979770;28;20026;-76
2022/10/23 09:10:39;;;;;;;0.10;0.10;;;17.20;98.00;;;;;;4979584;28;20034;-77
2022/10/23 09:13:44;;;;;;;2.03;0.88;;;17.30;98.00;;;;;;4904093;29;20179;-76
2022/10/23 09:16:48;;;;;;;0.30;0.30;;;17.40;98.00;;;;;;4979494;28;20423;-76
2022/10/23 09:19:25;;;;;;;0.68;0.68;;;17.50;98.00;;;;;;4979286;28;20331;-76
2022/10/23 09:22:01;;;;;;;0.35;0.22;;;17.50;98.00;;;;;;4962026;28;20327;-76
2022/10/23 09:24:30;;;;;;;0.63;0.35;;;17.50;98.00;;;;;;4962161;28;20054;-76
2022/10/23 09:27:05;;;;;;;0.98;0.30;;;17.60;98.00;;;;;;4962029;28;20109;-76
2022/10/23 09:29:47;;;;;;;1.90;0.43;;;17.60;98.00;;;;;;4979256;28;20122;-76
2022/10/23 09:33:12;;;;;;;1.73;0.20;;;17.70;98.00;;;;;;4961944;28;20278;-76
2022/10/23 09:36:29;;;;;;;0.10;0.10;;;17.80;97.40;;;;;;4978876;28;20051;-76
2022/10/23 09:39:29;;;;;;;1.02;0.85;;;17.90;98.00;;;;;;4976166;28;20478;-76
2022/10/23 09:42:44;;;;;;;0.17;0.10;;;18.10;97.40;;;;;;4976491;28;20498;-76
2022/10/23 09:49:28;;;;;;;1.55;0.30;;;18.30;98.00;;;;;;4979103;28;20426;-76
2022/10/23 09:52:12;;;;;;;0.10;0.08;;;18.40;97.20;;;;;;4961521;28;20089;-76
2022/10/23 09:54:57;;;;;;;0.57;0.40;;;18.50;97.20;;;;;;4978608;28;20359;-76
2022/10/23 09:57:43;;;;;;;0.30;0.20;;;18.50;96.00;;;;;;4978697;28;20023;-76
2022/10/23 10:00:32;;;;;;;0.25;0.20;;;18.60;97.70;;;;;;4961515;28;20033;-76
2022/10/23 10:03:02;;;;;;;1.58;0.52;;;18.70;97.00;;;;;;4961183;28;20169;-76
2022/10/23 10:05:55;;;;;;;4.22;0.80;;;18.90;95.90;;;;;;4978123;28;20120;-76
2022/10/23 10:08:50;;;;;;;0.60;0.60;;;19.20;94.60;;;;;;4978540;28;20035;-77
2022/10/23 10:12:11;;;;;;;0.20;0.20;;;19.70;97.10;;;;;;4978354;28;20078;-76
2022/10/23 10:15:27;;;;;;;0.00;0.00;;;20.30;92.30;;;;;;4937993;29;20043;-76
2022/10/23 10:18:20;;;;;;;0.40;0.22;;;21.30;89.80;;;;;;4881307;29;20045;-77
2022/10/23 10:21:12;;;;;;;1.15;0.35;;;21.90;88.40;;;;;;4881441;29;20029;-76
2022/10/23 10:24:14;;;;;;;0.30;0.30;;;22.20;86.70;;;;;;4887597;29;20048;-77
2022/10/23 10:27:01;;;;;;;0.50;0.40;;;22.60;86.60;;;;;;4884372;29;20032;-77
2022/10/23 10:29:35;;;;;;;0.30;0.20;;;22.90;86.90;;;;;;4899970;29;20045;-77
2022/10/23 10:32:33;;;;;;;0.00;0.00;;;22.90;84.40;;;;;;4899786;29;20036;-77
2022/10/23 10:35:26;;;;;;;0.38;0.17;;;22.60;84.50;;;;;;4899844;29;20044;-76
2022/10/23 10:38:10;;;;;;;0.30;0.20;;;21.90;84.20;;;;;;4899908;29;20085;-76
2022/10/23 10:41:26;;;;;;;0.63;0.50;;;21.40;86.70;;;;;;4899696;29;20025;-76
2022/10/23 10:44:14;;;;;;;0.77;0.20;;;20.90;88.10;;;;;;4843993;29;20132;-76
2022/10/23 10:47:43;;;;;;;0.08;0.08;;;20.80;89.20;;;;;;4899696;29;20041;-76
2022/10/23 10:51:07;;;;;;;0.08;0.08;;;20.20;87.10;;;;;;4844018;29;20490;-76
2022/10/23 10:54:02;;;;;;;0.03;0.00;;;19.80;88.80;;;;;;4848418;29;20045;-76
2022/10/23 10:56:41;;;;;;;0.20;0.10;;;19.70;89.80;;;;;;4899657;29;20043;-76
2022/10/23 10:59:41;;;;;;;0.00;0.00;;;19.70;92.30;;;;;;4883827;29;20032;-76
2022/10/23 11:02:40;;;;;;;3.95;0.75;;;20.10;90.80;;;;;;4899500;29;20033;-76
2022/10/23 11:08:38;;;;;;;0.30;0.20;;;20.40;90.40;;;;;;4899679;29;20104;-76
2022/10/23 11:11:43;;;;;;;0.45;0.20;;;21.10;87.00;;;;;;4899500;29;20045;-77
2022/10/23 11:14:26;;;;;;;0.10;0.10;;;21.50;85.70;;;;;;4883794;29;20044;-76
2022/10/23 11:17:39;;;;;;;1.27;0.10;;;21.80;85.80;;;;;;4900346;29;20108;-76
2022/10/23 11:20:26;;;;;;;0.10;0.10;;;22.20;85.90;;;;;;4902977;29;20485;-76
2022/10/23 11:23:38;;;;;;;0.28;0.20;;;22.50;86.70;;;;;;4904919;28;20036;-76
2022/10/23 11:26:50;;;;;;;0.20;0.10;;;22.50;81.10;;;;;;4962134;28;20305;-76
2022/10/23 11:29:46;;;;;;;0.10;0.10;;;22.40;82.80;;;;;;4925034;29;20032;-76
2022/10/23 11:32:51;;;;;;;0.25;0.22;;;22.30;82.60;;;;;;4940955;29;20087;-76
2022/10/23 11:35:52;;;;;;;0.10;0.10;;;22.40;83.80;;;;;;4924893;29;20036;-76
2022/10/23 11:38:32;;;;;;;0.90;0.55;;;22.60;82.20;;;;;;4940964;29;20164;-76
2022/10/23 11:41:05;;;;;;;0.30;0.28;;;22.60;80.90;;;;;;4940524;29;20109;-76
2022/10/23 11:44:31;;;;;;;0.00;0.00;;;22.70;82.10;;;;;;4924777;29;20059;-76
2022/10/23 11:47:30;;;;;;;0.30;0.07;;;22.60;80.70;;;;;;4831531;29;20034;-76
2022/10/23 11:50:24;;;;;;;0.10;0.10;;;22.40;82.00;;;;;;4847011;29;20052;-76
2022/10/23 11:52:56;;;;;;;3.70;0.20;;;22.40;83.60;;;;;;4846988;29;20201;-76
2022/10/23 11:55:31;;;;;;;0.30;0.20;;;22.50;84.20;;;;;;4846915;29;20132;-76
2022/10/23 11:58:19;;;;;;;0.47;0.10;;;22.50;83.50;;;;;;4831382;29;20026;-76
2022/10/23 12:04:48;;;;;;;0.38;0.13;;;21.90;81.50;;;;;;4864112;29;20036;-76
2022/10/23 12:07:49;;;;;;;0.40;0.20;;;21.70;82.50;;;;;;4865116;29;20123;-76
2022/10/23 12:10:33;;;;;;;0.30;0.30;;;21.40;84.60;;;;;;4882662;29;20041;-76
2022/10/23 12:13:05;;;;;;;0.43;0.17;;;21.10;84.80;;;;;;4883585;29;20053;-76
2022/10/23 12:15:39;;;;;;;0.30;0.20;;;20.70;85.30;;;;;;4868520;29;20100;-76
2022/10/23 12:18:17;;;;;;;1.45;0.30;;;20.30;86.80;;;;;;4883601;29;20041;-76
2022/10/23 12:21:39;;;;;;;0.22;0.13;;;20.10;88.20;;;;;;4883498;29;20417;-76
2022/10/23 12:24:39;;;;;;;0.80;0.10;;;20.00;87.80;;;;;;4895306;29;20055;-76
2022/10/23 12:27:42;;;;;;;0.32;0.30;;;19.90;88.50;;;;;;4941774;29;20030;-76
2022/10/23 12:30:19;;;;;;;0.20;0.13;;;19.80;89.20;;;;;;4942194;29;20032;-76
2022/10/23 12:33:14;;;;;;;0.80;0.13;;;19.80;87.90;;;;;;4942154;29;20036;-76
2022/10/23 12:36:22;;;;;;;0.28;0.20;;;19.70;89.00;;;;;;4941786;29;20031;-76
2022/10/23 12:38:57;;;;;;;0.10;0.10;;;19.80;92.10;;;;;;4941651;29;20020;-76
2022/10/23 12:41:48;;;;;;;1.77;0.30;;;19.80;90.90;;;;;;4943057;28;20095;-76
2022/10/23 12:44:13;;;;;;;0.17;0.08;;;19.80;88.50;;;;;;4941547;29;20043;-76
2022/10/23 12:47:00;;;;;;;0.50;0.30;;;19.80;89.00;;;;;;4941632;29;20024;-76
2022/10/23 12:49:35;;;;;;;0.13;0.13;;;19.80;87.00;;;;;;4941485;29;20035;-76
2022/10/23 12:52:17;;;;;;;0.35;0.22;;;19.80;86.80;;;;;;4941300;29;20028;-76
2022/10/23 12:54:42;;;;;;;0.45;0.35;;;19.90;90.10;;;;;;4940292;29;20332;-76
2022/10/23 12:57:29;;;;;;;13.43;1.85;;;19.90;88.30;;;;;;4940341;29;20028;-76
2022/10/23 13:00:09;;;;;;;0.57;0.20;;;19.90;88.70;;;;;;4940206;29;20082;-75
2022/10/23 13:06:16;;;;;;;0.63;0.63;;;19.60;87.10;;;;;;4941505;29;20038;-76
2022/10/23 13:08:51;;;;;;;1.48;0.35;;;19.40;88.30;;;;;;4939969;29;20028;-76
2022/10/23 13:11:27;;;;;;;0.63;0.20;;;19.30;92.60;;;;;;4941291;29;20035;-76
2022/10/23 13:13:53;;;;;;;0.20;0.17;;;19.30;94.70;;;;;;4940940;29;20106;-76
2022/10/23 13:16:37;;;;;;;0.13;0.10;;;19.20;94.00;;;;;;4939843;29;20055;-76
2022/10/23 13:19:41;;;;;;;1.20;0.57;;;19.10;92.00;;;;;;4940821;29;20078;-76
2022/10/23 13:22:21;;;;;;;0.20;0.10;;;19.10;93.80;;;;;;4866722;29;20069;-76
2022/10/23 13:24:47;;;;;;;0.30;0.22;;;19.00;94.00;;;;;;4882446;29;20033;-76
2022/10/23 13:27:34;;;;;;;0.65;0.47;;;18.90;92.20;;;;;;4938317;29;20115;-76
2022/10/23 13:30:51;;;;;;;0.10;0.10;;;18.80;93.60;;;;;;4940751;29;20035;-76
2022/10/23 13:33:20;;;;;;;0.10;0.10;;;18.80;95.20;;;;;;4939397;29;20040;-76
2022/10/23 13:36:13;;;;;;;0.17;0.17;;;18.70;94.50;;;;;;4940567;29;20316;-76
2022/10/23 13:39:00;;;;;;;1.85;0.35;;;18.70;94.70;;;;;;4940468;29;20028;-76
2022/10/23 13:41:39;;;;;;;0.47;0.20;;;18.70;92.90;;;;;;4940591;29;20360;-76
2022/10/23 13:44:06;;;;;;;0.28;0.25;;;18.70;93.60;;;;;;4978718;28;20058;-76
2022/10/23 13:46:44;;;;;;;1.33;0.10;;;18.70;96.80;;;;;;4961778;28;20122;-76
2022/10/23 13:49:19;;;;;;;0.00;0.00;;;18.60;95.90;;;;;;4978852;28;20113;-76
2022/10/23 13:51:57;;;;;;;0.32;0.30;;;18.50;96.00;;;;;;4961664;28;20046;-76
2022/10/23 13:54:25;;;;;;;0.17;0.10;;;18.60;95.50;;;;;;4961608;28;20300;-76
2022/10/23 13:57:12;;;;;;;0.15;0.10;;;18.60;94.00;;;;;;4961560;28;20415;-76
2022/10/23 13:59:47;;;;;;;0.80;0.52;;;18.50;95.00;;;;;;4978661;28;20328;-76
2022/10/23 14:02:28;;;;;;;0.35;0.20;;;18.50;94.70;;;;;;4945434;28;20458;-76
2022/10/23 14:05:03;;;;;;;0.50;0.32;;;18.50;96.20;;;;;;4961385;28;20425;-76
2022/10/23 14:07:38;;;;;;;0.57;0.57;;;18.40;95.90;;;;;;4961342;28;20030;-77
2022/10/23 14:10:13;;;;;;;0.38;0.30;;;18.40;95.60;;;;;;4961269;28;20037;-76
2022/10/23 14:12:43;;;;;;;0.65;0.65;;;18.40;96.10;;;;;;4961162;28;20093;-75
2022/10/23 14:15:18;;;;;;;0.10;0.10;;;18.30;97.10;;;;;;4961003;28;20506;-76
2022/10/23 14:21:07;;;;;;;0.20;0.20;;;18.20;97.80;;;;;;4978646;28;20433;-76
2022/10/23 14:23:33;;;;;;;0.30;0.30;;;18.30;98.00;;;;;;4960949;28;20326;-76
2022/10/23 14:26:23;;;;;;;0.15;0.08;;;18.20;98.00;;;;;;4978108;28;20031;-76
2022/10/23 14:29:01;;;;;;;2.85;2.35;;;18.20;98.00;;;;;;4978170;28;20038;-76
2022/10/23 14:31:36;;;;;;;1.27;0.82;;;18.20;98.00;;;;;;4960958;28;20039;-76
2022/10/23 14:34:02;;;;;;;0.25;0.20;;;18.20;98.00;;;;;;4977922;28;20031;-76
2022/10/23 14:36:40;;;;;;;1.75;1.08;;;18.10;98.00;;;;;;4961149;28;20483;-76
2022/10/23 14:39:15;;;;;;;0.30;0.10;;;18.10;98.00;;;;;;4961115;28;20366;-76
2022/10/23 14:41:49;;;;;;;0.57;0.47;;;18.00;98.00;;;;;;4977977;28;20297;-76
2022/10/23 14:44:52;;;;;;;0.95;0.30;;;18.00;98.00;;;;;;4922549;29;20044;-76
2022/10/23 14:47:28;;;;;;;1.08;0.70;;;17.90;98.00;;;;;;4938345;29;20042;-76
2022/10/23 14:50:03;;;;;;;0.20;0.17;;;17.90;98.00;;;;;;4938381;29;20415;-76
2022/10/23 14:52:38;;;;;;;0.40;0.20;;;17.80;98.00;;;;;;4939288;29;20086;-76
2022/10/23 14:55:13;;;;;;;0.35;0.35;;;17.70;98.00;;;;;;4938211;29;20063;-76
2022/10/23 14:57:53;;;;;;;0.20;0.10;;;17.60;98.00;;;;;;4939348;29;20043;-76
2022/10/23 15:00:29;;;;;;;0.47;0.38;;;17.50;98.00;;;;;;4938225;29;20118;-76
2022/10/23 15:02:54;;;;;;;0.30;0.30;;;17.50;98.00;;;;;;4939248;29;20040;-76
2022/10/23 15:05:32;;;;;;;1.02;0.68;;;17.40;98.00;;;;;;4939191;29;20032;-76
2022/10/23 15:08:07;;;;;;;1.35;0.45;;;17.30;98.00;;;;;;4939208;29;20420;-76
2022/10/23 15:10:42;;;;;;;1.50;1.10;;;17.30;98.00;;;;;;4939163;29;20024;-76
2022/10/23 15:16:45;;;;;;;0.17;0.13;;;17.10;98.00;;;;;;4939416;29;20086;-76
2022/10/23 15:19:20;;;;;;;0.75;0.65;;;17.00;98.00;;;;;;4938077;29;20028;-76
2022/10/23 15:21:54;;;;;;;0.40;0.40;;;17.00;98.00;;;;;;4938861;29;20020;-76
2022/10/23 15:24:20;;;;;;;0.65;0.40;;;17.00;98.00;;;;;;4939048;29;20432;-76
2022/10/23 15:27:17;;;;;;;0.68;0.45;;;16.90;98.00;;;;;;4938035;29;20028;-76
2022/10/23 15:29:52;;;;;;;1.30;0.90;;;16.90;98.00;;;;;;4939002;29;20028;-76
2022/10/23 15:32:27;;;;;;;0.77;0.77;;;16.80;98.00;;;;;;4939183;29;20032;-76
2022/10/23 15:35:02;;;;;;;0.38;0.38;;;16.80;98.00;;;;;;4938887;29;20036;-76
2022/10/23 15:37:36;;;;;;;0.40;0.28;;;16.70;98.00;;;;;;4939066;29;20030;-76
2022/10/23 15:40:11;;;;;;;0.77;0.65;;;16.70;98.00;;;;;;4938962;29;20028;-76
2022/10/23 15:43:04;;;;;;;0.15;0.15;;;16.70;98.00;;;;;;4948538;28;20051;-76
2022/10/23 15:45:39;;;;;;;0.40;0.28;;;16.70;98.00;;;;;;4977293;28;20035;-76
2022/10/23 15:48:14;;;;;;;;;;;16.70;98.00;;;;;;4977676;28;20035;-76
2022/10/23 15:50:49;;;;;;;1.23;1.05;;;16.70;98.00;;;;;;4960206;28;20124;-76
2022/10/23 15:56:48;;;;;;;0.70;0.45;;;16.80;98.00;;;;;;4977436;28;20427;-76
2022/10/23 15:59:24;;;;;;;0.40;0.32;;;16.80;98.00;;;;;;4977152;28;20015;-76
2022/10/23 16:01:59;;;;;;;0.82;0.73;;;16.80;98.00;;;;;;4977110;28;20027;-76